sensor_id;sensor_type;location;lat;lon;timestamp;P1;durP1;ratioP1;P2;durP2;ratioP2
57029;SDS011;42920;45.306;20.448;2023-09-30T00:01:17;21.65;;;14.77;;
57029;SDS011;42920;45.306;20.448;2023-09-30T00:03:44;25.65;;;15.32;;
57029;SDS011;42920;45.306;20.448;2023-09-30T00:06:10;27.65;;;14.65;;
57029;SDS011;42920;45.306;20.448;2023-09-30T00:08:35;25.02;;;14.75;;
57029;SDS011;42920;45.306;20.448;2023-09-30T00:11:04;23.95;;;14.68;;
57029;SDS011;42920;45.306;20.448;2023-09-30T00:13:30;27.25;;;15.18;;
57029;SDS011;42920;45.306;20.448;2023-09-30T00:15:57;27.27;;;16.05;;
57029;SDS011;42920;45.306;20.448;2023-09-30T00:18:23;20.90;;;15.70;;
57029;SDS011;42920;45.306;20.448;2023-09-30T00:20:48;22.90;;;14.50;;
57029;SDS011;42920;45.306;20.448;2023-09-30T00:23:14;22.13;;;15.25;;
57029;SDS011;42920;45.306;20.448;2023-09-30T00:25:40;21.70;;;14.95;;
57029;SDS011;42920;45.306;20.448;2023-09-30T00:28:06;23.65;;;15.75;;
57029;SDS011;42920;45.306;20.448;2023-09-30T00:30:32;23.73;;;15.63;;
57029;SDS011;42920;45.306;20.448;2023-09-30T00:32:59;26.40;;;14.70;;
57029;SDS011;42920;45.306;20.448;2023-09-30T00:35:25;25.80;;;14.57;;
57029;SDS011;42920;45.306;20.448;2023-09-30T00:37:50;25.40;;;15.77;;
57029;SDS011;42920;45.306;20.448;2023-09-30T00:40:16;21.40;;;14.48;;
57029;SDS011;42920;45.306;20.448;2023-09-30T00:42:42;23.25;;;14.52;;
57029;SDS011;42920;45.306;20.448;2023-09-30T00:45:08;22.63;;;15.02;;
57029;SDS011;42920;45.306;20.448;2023-09-30T00:47:35;34.28;;;16.02;;
57029;SDS011;42920;45.306;20.448;2023-09-30T00:50:01;21.75;;;14.93;;
57029;SDS011;42920;45.306;20.448;2023-09-30T00:52:29;25.67;;;15.23;;
57029;SDS011;42920;45.306;20.448;2023-09-30T00:54:57;26.55;;;15.10;;
57029;SDS011;42920;45.306;20.448;2023-09-30T00:57:23;26.27;;;15.23;;
57029;SDS011;42920;45.306;20.448;2023-09-30T00:59:50;28.17;;;14.35;;
57029;SDS011;42920;45.306;20.448;2023-09-30T01:02:19;28.00;;;15.00;;
57029;SDS011;42920;45.306;20.448;2023-09-30T01:04:46;26.60;;;14.77;;
57029;SDS011;42920;45.306;20.448;2023-09-30T01:07:12;21.00;;;14.02;;
57029;SDS011;42920;45.306;20.448;2023-09-30T01:09:38;22.88;;;14.65;;
57029;SDS011;42920;45.306;20.448;2023-09-30T01:12:04;22.05;;;15.18;;
57029;SDS011;42920;45.306;20.448;2023-09-30T01:14:31;22.77;;;13.57;;
57029;SDS011;42920;45.306;20.448;2023-09-30T01:17:03;29.25;;;14.93;;
57029;SDS011;42920;45.306;20.448;2023-09-30T01:19:33;24.50;;;13.75;;
57029;SDS011;42920;45.306;20.448;2023-09-30T01:21:59;24.75;;;15.77;;
57029;SDS011;42920;45.306;20.448;2023-09-30T01:24:26;24.67;;;15.73;;
57029;SDS011;42920;45.306;20.448;2023-09-30T01:26:52;22.00;;;14.65;;
57029;SDS011;42920;45.306;20.448;2023-09-30T01:29:18;19.30;;;14.63;;
57029;SDS011;42920;45.306;20.448;2023-09-30T01:31:44;26.42;;;13.98;;
57029;SDS011;42920;45.306;20.448;2023-09-30T01:34:13;18.27;;;12.30;;
57029;SDS011;42920;45.306;20.448;2023-09-30T01:36:40;20.13;;;12.98;;
57029;SDS011;42920;45.306;20.448;2023-09-30T01:39:11;18.33;;;11.85;;
57029;SDS011;42920;45.306;20.448;2023-09-30T01:41:38;20.02;;;12.48;;
57029;SDS011;42920;45.306;20.448;2023-09-30T01:44:05;20.45;;;12.52;;
57029;SDS011;42920;45.306;20.448;2023-09-30T01:46:31;20.27;;;12.98;;
57029;SDS011;42920;45.306;20.448;2023-09-30T01:48:57;19.50;;;13.07;;
57029;SDS011;42920;45.306;20.448;2023-09-30T01:51:23;17.20;;;12.18;;
57029;SDS011;42920;45.306;20.448;2023-09-30T01:53:49;17.67;;;12.50;;
57029;SDS011;42920;45.306;20.448;2023-09-30T01:56:15;26.25;;;12.90;;
57029;SDS011;42920;45.306;20.448;2023-09-30T01:58:41;17.95;;;11.77;;
57029;SDS011;42920;45.306;20.448;2023-09-30T02:01:07;25.02;;;12.73;;
57029;SDS011;42920;45.306;20.448;2023-09-30T02:03:33;17.33;;;12.30;;
57029;SDS011;42920;45.306;20.448;2023-09-30T02:05:58;16.48;;;12.05;;
57029;SDS011;42920;45.306;20.448;2023-09-30T02:08:24;22.90;;;11.20;;
57029;SDS011;42920;45.306;20.448;2023-09-30T02:10:50;17.65;;;11.80;;
57029;SDS011;42920;45.306;20.448;2023-09-30T02:13:16;18.17;;;11.27;;
57029;SDS011;42920;45.306;20.448;2023-09-30T02:15:42;15.95;;;11.68;;
57029;SDS011;42920;45.306;20.448;2023-09-30T02:18:08;21.10;;;11.50;;
57029;SDS011;42920;45.306;20.448;2023-09-30T02:20:35;14.80;;;10.77;;
57029;SDS011;42920;45.306;20.448;2023-09-30T02:23:04;13.55;;;10.75;;
57029;SDS011;42920;45.306;20.448;2023-09-30T02:25:31;13.55;;;10.32;;
57029;SDS011;42920;45.306;20.448;2023-09-30T02:27:57;18.95;;;11.73;;
57029;SDS011;42920;45.306;20.448;2023-09-30T02:30:22;20.80;;;11.77;;
57029;SDS011;42920;45.306;20.448;2023-09-30T02:32:49;20.40;;;12.43;;
57029;SDS011;42920;45.306;20.448;2023-09-30T02:35:14;15.10;;;11.25;;
57029;SDS011;42920;45.306;20.448;2023-09-30T02:37:40;19.30;;;11.32;;
57029;SDS011;42920;45.306;20.448;2023-09-30T02:40:07;16.13;;;10.93;;
57029;SDS011;42920;45.306;20.448;2023-09-30T02:42:36;15.52;;;11.35;;
57029;SDS011;42920;45.306;20.448;2023-09-30T02:45:03;17.40;;;10.77;;
57029;SDS011;42920;45.306;20.448;2023-09-30T02:47:30;15.77;;;10.85;;
57029;SDS011;42920;45.306;20.448;2023-09-30T02:49:57;20.67;;;11.57;;
57029;SDS011;42920;45.306;20.448;2023-09-30T02:52:23;16.02;;;9.80;;
57029;SDS011;42920;45.306;20.448;2023-09-30T02:54:49;15.57;;;11.52;;
57029;SDS011;42920;45.306;20.448;2023-09-30T02:57:16;16.15;;;11.63;;
57029;SDS011;42920;45.306;20.448;2023-09-30T02:59:43;15.50;;;10.25;;
57029;SDS011;42920;45.306;20.448;2023-09-30T03:02:09;21.17;;;12.38;;
57029;SDS011;42920;45.306;20.448;2023-09-30T03:04:36;16.20;;;11.68;;
57029;SDS011;42920;45.306;20.448;2023-09-30T03:07:02;14.82;;;10.63;;
57029;SDS011;42920;45.306;20.448;2023-09-30T03:09:28;16.42;;;11.48;;
57029;SDS011;42920;45.306;20.448;2023-09-30T03:11:54;18.42;;;10.90;;
57029;SDS011;42920;45.306;20.448;2023-09-30T03:14:24;16.20;;;11.18;;
57029;SDS011;42920;45.306;20.448;2023-09-30T03:16:50;16.17;;;10.82;;
57029;SDS011;42920;45.306;20.448;2023-09-30T03:19:17;15.85;;;9.95;;
57029;SDS011;42920;45.306;20.448;2023-09-30T03:21:42;15.65;;;10.88;;
57029;SDS011;42920;45.306;20.448;2023-09-30T03:24:08;16.35;;;11.32;;
57029;SDS011;42920;45.306;20.448;2023-09-30T03:26:34;15.75;;;10.85;;
57029;SDS011;42920;45.306;20.448;2023-09-30T03:29:00;14.43;;;10.57;;
57029;SDS011;42920;45.306;20.448;2023-09-30T03:31:28;19.58;;;10.43;;
57029;SDS011;42920;45.306;20.448;2023-09-30T03:33:54;15.98;;;11.10;;
57029;SDS011;42920;45.306;20.448;2023-09-30T03:36:20;16.35;;;11.23;;
57029;SDS011;42920;45.306;20.448;2023-09-30T03:38:49;17.50;;;11.45;;
57029;SDS011;42920;45.306;20.448;2023-09-30T03:41:15;15.13;;;11.15;;
57029;SDS011;42920;45.306;20.448;2023-09-30T03:43:41;18.15;;;11.55;;
57029;SDS011;42920;45.306;20.448;2023-09-30T03:46:07;17.60;;;12.20;;
57029;SDS011;42920;45.306;20.448;2023-09-30T03:48:33;18.88;;;10.80;;
57029;SDS011;42920;45.306;20.448;2023-09-30T03:51:13;16.80;;;11.57;;
57029;SDS011;42920;45.306;20.448;2023-09-30T03:53:42;18.13;;;11.80;;
57029;SDS011;42920;45.306;20.448;2023-09-30T03:56:10;15.73;;;11.93;;
57029;SDS011;42920;45.306;20.448;2023-09-30T03:58:40;21.73;;;11.43;;
57029;SDS011;42920;45.306;20.448;2023-09-30T04:01:07;18.35;;;11.20;;
57029;SDS011;42920;45.306;20.448;2023-09-30T04:03:38;14.48;;;10.85;;
57029;SDS011;42920;45.306;20.448;2023-09-30T04:06:05;15.93;;;10.38;;
57029;SDS011;42920;45.306;20.448;2023-09-30T04:08:34;24.45;;;11.40;;
57029;SDS011;42920;45.306;20.448;2023-09-30T04:11:00;16.98;;;11.88;;
57029;SDS011;42920;45.306;20.448;2023-09-30T04:13:28;14.45;;;11.10;;
57029;SDS011;42920;45.306;20.448;2023-09-30T04:15:54;18.23;;;11.65;;
57029;SDS011;42920;45.306;20.448;2023-09-30T04:18:21;16.23;;;11.55;;
57029;SDS011;42920;45.306;20.448;2023-09-30T04:20:47;21.25;;;12.48;;
57029;SDS011;42920;45.306;20.448;2023-09-30T04:23:13;23.20;;;11.70;;
57029;SDS011;42920;45.306;20.448;2023-09-30T04:25:40;15.60;;;11.80;;
57029;SDS011;42920;45.306;20.448;2023-09-30T04:28:07;21.63;;;12.52;;
57029;SDS011;42920;45.306;20.448;2023-09-30T04:30:34;19.25;;;12.43;;
57029;SDS011;42920;45.306;20.448;2023-09-30T04:33:00;17.13;;;12.18;;
57029;SDS011;42920;45.306;20.448;2023-09-30T04:35:29;18.98;;;12.23;;
57029;SDS011;42920;45.306;20.448;2023-09-30T04:37:56;23.42;;;13.55;;
57029;SDS011;42920;45.306;20.448;2023-09-30T04:40:26;28.23;;;14.35;;
57029;SDS011;42920;45.306;20.448;2023-09-30T04:42:55;21.50;;;13.60;;
57029;SDS011;42920;45.306;20.448;2023-09-30T04:45:23;20.17;;;12.32;;
57029;SDS011;42920;45.306;20.448;2023-09-30T04:47:51;20.55;;;12.70;;
57029;SDS011;42920;45.306;20.448;2023-09-30T04:50:17;23.63;;;13.23;;
57029;SDS011;42920;45.306;20.448;2023-09-30T04:52:46;22.42;;;13.50;;
57029;SDS011;42920;45.306;20.448;2023-09-30T04:55:13;24.83;;;15.20;;
57029;SDS011;42920;45.306;20.448;2023-09-30T04:57:41;23.80;;;14.80;;
57029;SDS011;42920;45.306;20.448;2023-09-30T05:00:09;23.58;;;13.98;;
57029;SDS011;42920;45.306;20.448;2023-09-30T05:02:37;23.63;;;14.38;;
57029;SDS011;42920;45.306;20.448;2023-09-30T05:05:03;25.40;;;13.77;;
57029;SDS011;42920;45.306;20.448;2023-09-30T05:07:32;25.27;;;14.63;;
57029;SDS011;42920;45.306;20.448;2023-09-30T05:09:58;23.83;;;14.05;;
57029;SDS011;42920;45.306;20.448;2023-09-30T05:12:24;23.63;;;14.35;;
57029;SDS011;42920;45.306;20.448;2023-09-30T05:14:51;23.65;;;13.98;;
57029;SDS011;42920;45.306;20.448;2023-09-30T05:17:17;24.60;;;15.07;;
57029;SDS011;42920;45.306;20.448;2023-09-30T05:19:43;24.50;;;14.77;;
57029;SDS011;42920;45.306;20.448;2023-09-30T05:22:09;24.83;;;13.80;;
57029;SDS011;42920;45.306;20.448;2023-09-30T05:24:35;24.02;;;14.82;;
57029;SDS011;42920;45.306;20.448;2023-09-30T05:27:01;21.98;;;15.13;;
57029;SDS011;42920;45.306;20.448;2023-09-30T05:29:27;21.75;;;14.88;;
57029;SDS011;42920;45.306;20.448;2023-09-30T05:31:54;27.27;;;15.20;;
57029;SDS011;42920;45.306;20.448;2023-09-30T05:34:19;23.60;;;13.73;;
57029;SDS011;42920;45.306;20.448;2023-09-30T05:36:45;29.38;;;15.13;;
57029;SDS011;42920;45.306;20.448;2023-09-30T05:39:11;23.58;;;15.15;;
57029;SDS011;42920;45.306;20.448;2023-09-30T05:41:37;23.05;;;15.48;;
57029;SDS011;42920;45.306;20.448;2023-09-30T05:44:03;25.40;;;15.20;;
57029;SDS011;42920;45.306;20.448;2023-09-30T05:46:32;29.75;;;15.65;;
57029;SDS011;42920;45.306;20.448;2023-09-30T05:48:58;25.05;;;14.88;;
57029;SDS011;42920;45.306;20.448;2023-09-30T05:51:24;32.58;;;16.40;;
57029;SDS011;42920;45.306;20.448;2023-09-30T05:53:49;24.17;;;15.70;;
57029;SDS011;42920;45.306;20.448;2023-09-30T05:56:15;27.27;;;16.15;;
57029;SDS011;42920;45.306;20.448;2023-09-30T05:58:44;31.85;;;16.95;;
57029;SDS011;42920;45.306;20.448;2023-09-30T06:01:10;27.17;;;16.63;;
57029;SDS011;42920;45.306;20.448;2023-09-30T06:03:36;25.35;;;16.90;;
57029;SDS011;42920;45.306;20.448;2023-09-30T06:06:14;27.42;;;17.02;;
57029;SDS011;42920;45.306;20.448;2023-09-30T06:08:41;24.75;;;16.17;;
57029;SDS011;42920;45.306;20.448;2023-09-30T06:11:19;25.77;;;16.30;;
57029;SDS011;42920;45.306;20.448;2023-09-30T06:13:49;31.17;;;17.10;;
57029;SDS011;42920;45.306;20.448;2023-09-30T06:16:18;30.80;;;17.75;;
57029;SDS011;42920;45.306;20.448;2023-09-30T06:18:44;30.70;;;16.67;;
57029;SDS011;42920;45.306;20.448;2023-09-30T06:21:14;31.67;;;17.27;;
57029;SDS011;42920;45.306;20.448;2023-09-30T06:23:41;24.45;;;15.40;;
57029;SDS011;42920;45.306;20.448;2023-09-30T06:26:08;28.58;;;16.95;;
57029;SDS011;42920;45.306;20.448;2023-09-30T06:28:34;21.88;;;14.88;;
57029;SDS011;42920;45.306;20.448;2023-09-30T06:31:06;26.75;;;16.00;;
57029;SDS011;42920;45.306;20.448;2023-09-30T06:33:33;29.65;;;14.80;;
57029;SDS011;42920;45.306;20.448;2023-09-30T06:35:59;25.65;;;15.23;;
57029;SDS011;42920;45.306;20.448;2023-09-30T06:38:27;25.58;;;15.77;;
57029;SDS011;42920;45.306;20.448;2023-09-30T06:40:52;26.00;;;15.45;;
57029;SDS011;42920;45.306;20.448;2023-09-30T06:43:19;24.67;;;14.88;;
57029;SDS011;42920;45.306;20.448;2023-09-30T06:45:45;28.95;;;14.60;;
57029;SDS011;42920;45.306;20.448;2023-09-30T06:48:11;23.38;;;14.63;;
57029;SDS011;42920;45.306;20.448;2023-09-30T06:53:17;23.30;;;14.95;;
57029;SDS011;42920;45.306;20.448;2023-09-30T06:55:44;29.20;;;15.30;;
57029;SDS011;42920;45.306;20.448;2023-09-30T06:58:10;26.73;;;14.93;;
57029;SDS011;42920;45.306;20.448;2023-09-30T07:00:37;23.48;;;13.85;;
57029;SDS011;42920;45.306;20.448;2023-09-30T07:03:03;21.48;;;13.20;;
57029;SDS011;42920;45.306;20.448;2023-09-30T07:05:29;23.67;;;14.82;;
57029;SDS011;42920;45.306;20.448;2023-09-30T07:07:55;19.10;;;13.38;;
57029;SDS011;42920;45.306;20.448;2023-09-30T07:10:21;19.52;;;14.93;;
57029;SDS011;42920;45.306;20.448;2023-09-30T07:12:47;19.77;;;14.48;;
57029;SDS011;42920;45.306;20.448;2023-09-30T07:15:13;26.75;;;14.50;;
57029;SDS011;42920;45.306;20.448;2023-09-30T07:17:39;20.58;;;13.85;;
57029;SDS011;42920;45.306;20.448;2023-09-30T07:20:05;27.73;;;14.73;;
57029;SDS011;42920;45.306;20.448;2023-09-30T07:22:32;20.40;;;14.77;;
57029;SDS011;42920;45.306;20.448;2023-09-30T07:24:59;20.30;;;13.95;;
57029;SDS011;42920;45.306;20.448;2023-09-30T07:27:25;19.20;;;14.25;;
57029;SDS011;42920;45.306;20.448;2023-09-30T07:29:50;20.25;;;13.57;;
57029;SDS011;42920;45.306;20.448;2023-09-30T07:32:16;18.05;;;12.88;;
57029;SDS011;42920;45.306;20.448;2023-09-30T07:34:42;25.73;;;13.85;;
57029;SDS011;42920;45.306;20.448;2023-09-30T07:37:08;23.70;;;14.45;;
57029;SDS011;42920;45.306;20.448;2023-09-30T07:39:37;22.60;;;15.15;;
57029;SDS011;42920;45.306;20.448;2023-09-30T07:42:03;26.85;;;14.32;;
57029;SDS011;42920;45.306;20.448;2023-09-30T07:44:29;21.52;;;13.70;;
57029;SDS011;42920;45.306;20.448;2023-09-30T07:46:55;20.73;;;13.10;;
57029;SDS011;42920;45.306;20.448;2023-09-30T07:49:20;21.27;;;12.70;;
57029;SDS011;42920;45.306;20.448;2023-09-30T07:51:46;16.88;;;12.55;;
57029;SDS011;42920;45.306;20.448;2023-09-30T07:54:12;26.67;;;12.65;;
57029;SDS011;42920;45.306;20.448;2023-09-30T07:56:38;20.20;;;12.70;;
57029;SDS011;42920;45.306;20.448;2023-09-30T07:59:03;18.35;;;11.20;;
57029;SDS011;42920;45.306;20.448;2023-09-30T08:01:30;16.42;;;12.38;;
57029;SDS011;42920;45.306;20.448;2023-09-30T08:03:56;18.88;;;11.30;;
57029;SDS011;42920;45.306;20.448;2023-09-30T08:06:22;20.67;;;11.00;;
57029;SDS011;42920;45.306;20.448;2023-09-30T08:08:48;16.58;;;11.40;;
57029;SDS011;42920;45.306;20.448;2023-09-30T08:11:14;14.18;;;10.95;;
57029;SDS011;42920;45.306;20.448;2023-09-30T08:13:40;16.63;;;10.88;;
57029;SDS011;42920;45.306;20.448;2023-09-30T08:16:06;21.42;;;11.18;;
57029;SDS011;42920;45.306;20.448;2023-09-30T08:18:32;13.82;;;9.80;;
57029;SDS011;42920;45.306;20.448;2023-09-30T08:20:58;16.15;;;10.15;;
57029;SDS011;42920;45.306;20.448;2023-09-30T08:23:23;18.55;;;10.70;;
57029;SDS011;42920;45.306;20.448;2023-09-30T08:25:49;15.25;;;9.48;;
57029;SDS011;42920;45.306;20.448;2023-09-30T08:28:15;19.38;;;9.88;;
57029;SDS011;42920;45.306;20.448;2023-09-30T08:30:41;18.55;;;9.20;;
57029;SDS011;42920;45.306;20.448;2023-09-30T08:33:07;17.55;;;8.15;;
57029;SDS011;42920;45.306;20.448;2023-09-30T08:35:36;14.60;;;8.05;;
57029;SDS011;42920;45.306;20.448;2023-09-30T08:38:05;13.20;;;8.13;;
57029;SDS011;42920;45.306;20.448;2023-09-30T08:40:31;22.45;;;7.07;;
57029;SDS011;42920;45.306;20.448;2023-09-30T08:42:56;11.93;;;7.65;;
57029;SDS011;42920;45.306;20.448;2023-09-30T08:45:22;11.93;;;7.47;;
57029;SDS011;42920;45.306;20.448;2023-09-30T08:47:49;17.20;;;7.55;;
57029;SDS011;42920;45.306;20.448;2023-09-30T08:50:16;17.80;;;7.25;;
57029;SDS011;42920;45.306;20.448;2023-09-30T08:52:43;15.75;;;7.28;;
57029;SDS011;42920;45.306;20.448;2023-09-30T08:55:10;13.82;;;6.63;;
57029;SDS011;42920;45.306;20.448;2023-09-30T08:57:37;12.90;;;7.07;;
57029;SDS011;42920;45.306;20.448;2023-09-30T09:00:05;18.63;;;7.28;;
57029;SDS011;42920;45.306;20.448;2023-09-30T09:02:35;14.68;;;7.13;;
57029;SDS011;42920;45.306;20.448;2023-09-30T09:05:02;26.48;;;7.85;;
57029;SDS011;42920;45.306;20.448;2023-09-30T09:07:28;11.27;;;7.20;;
57029;SDS011;42920;45.306;20.448;2023-09-30T09:12:58;17.48;;;7.68;;
57029;SDS011;42920;45.306;20.448;2023-09-30T09:15:27;12.80;;;7.90;;
57029;SDS011;42920;45.306;20.448;2023-09-30T09:17:54;14.00;;;7.10;;
57029;SDS011;42920;45.306;20.448;2023-09-30T09:20:23;13.75;;;6.65;;
57029;SDS011;42920;45.306;20.448;2023-09-30T09:22:53;10.52;;;6.78;;
57029;SDS011;42920;45.306;20.448;2023-09-30T09:25:21;12.18;;;6.88;;
57029;SDS011;42920;45.306;20.448;2023-09-30T09:27:48;11.45;;;7.13;;
57029;SDS011;42920;45.306;20.448;2023-09-30T09:35:30;15.07;;;7.68;;
57029;SDS011;42920;45.306;20.448;2023-09-30T09:38:06;10.27;;;5.95;;
57029;SDS011;42920;45.306;20.448;2023-09-30T09:42:59;15.93;;;8.52;;
57029;SDS011;42920;45.306;20.448;2023-09-30T09:45:30;11.60;;;7.15;;
57029;SDS011;42920;45.306;20.448;2023-09-30T09:48:01;10.52;;;6.22;;
57029;SDS011;42920;45.306;20.448;2023-09-30T09:50:29;13.60;;;6.38;;
57029;SDS011;42920;45.306;20.448;2023-09-30T09:52:58;11.73;;;6.47;;
57029;SDS011;42920;45.306;20.448;2023-09-30T09:55:26;19.38;;;8.15;;
57029;SDS011;42920;45.306;20.448;2023-09-30T09:57:52;13.77;;;7.28;;
57029;SDS011;42920;45.306;20.448;2023-09-30T10:00:23;13.90;;;6.18;;
57029;SDS011;42920;45.306;20.448;2023-09-30T10:02:50;11.70;;;6.00;;
57029;SDS011;42920;45.306;20.448;2023-09-30T10:05:17;12.07;;;6.20;;
57029;SDS011;42920;45.306;20.448;2023-09-30T10:07:45;21.63;;;7.10;;
57029;SDS011;42920;45.306;20.448;2023-09-30T10:10:25;12.35;;;6.03;;
57029;SDS011;42920;45.306;20.448;2023-09-30T10:12:53;11.18;;;6.30;;
57029;SDS011;42920;45.306;20.448;2023-09-30T10:18:07;11.98;;;5.13;;
57029;SDS011;42920;45.306;20.448;2023-09-30T10:20:37;12.25;;;5.75;;
57029;SDS011;42920;45.306;20.448;2023-09-30T10:23:19;12.15;;;6.18;;
57029;SDS011;42920;45.306;20.448;2023-09-30T10:25:46;14.73;;;8.98;;
57029;SDS011;42920;45.306;20.448;2023-09-30T10:31:11;10.02;;;6.90;;
57029;SDS011;42920;45.306;20.448;2023-09-30T10:38:56;9.68;;;5.90;;
57029;SDS011;42920;45.306;20.448;2023-09-30T10:46:54;7.25;;;5.65;;
57029;SDS011;42920;45.306;20.448;2023-09-30T10:51:54;76.32;;;45.17;;
57029;SDS011;42920;45.306;20.448;2023-09-30T10:54:28;115.50;;;71.72;;
57029;SDS011;42920;45.306;20.448;2023-09-30T10:56:54;111.35;;;70.65;;
57029;SDS011;42920;45.306;20.448;2023-09-30T10:59:24;46.55;;;26.80;;
57029;SDS011;42920;45.306;20.448;2023-09-30T11:01:52;22.52;;;12.27;;
57029;SDS011;42920;45.306;20.448;2023-09-30T11:04:18;26.33;;;17.27;;
57029;SDS011;42920;45.306;20.448;2023-09-30T11:06:45;33.67;;;22.23;;
57029;SDS011;42920;45.306;20.448;2023-09-30T11:09:20;12.43;;;6.75;;
57029;SDS011;42920;45.306;20.448;2023-09-30T11:11:51;13.75;;;9.27;;
57029;SDS011;42920;45.306;20.448;2023-09-30T11:16:49;15.00;;;10.30;;
57029;SDS011;42920;45.306;20.448;2023-09-30T11:19:17;24.05;;;11.07;;
57029;SDS011;42920;45.306;20.448;2023-09-30T11:21:53;14.50;;;6.00;;
57029;SDS011;42920;45.306;20.448;2023-09-30T11:24:23;10.38;;;6.60;;
57029;SDS011;42920;45.306;20.448;2023-09-30T11:26:52;11.88;;;7.43;;
57029;SDS011;42920;45.306;20.448;2023-09-30T11:29:19;8.73;;;5.35;;
57029;SDS011;42920;45.306;20.448;2023-09-30T11:31:49;12.98;;;6.30;;
57029;SDS011;42920;45.306;20.448;2023-09-30T11:34:16;15.55;;;6.78;;
57029;SDS011;42920;45.306;20.448;2023-09-30T11:36:50;29.75;;;15.48;;
57029;SDS011;42920;45.306;20.448;2023-09-30T11:39:27;13.65;;;7.60;;
57029;SDS011;42920;45.306;20.448;2023-09-30T11:41:54;22.88;;;10.07;;
57029;SDS011;42920;45.306;20.448;2023-09-30T11:44:22;18.25;;;6.18;;
57029;SDS011;42920;45.306;20.448;2023-09-30T11:46:57;11.35;;;6.93;;
57029;SDS011;42920;45.306;20.448;2023-09-30T11:49:34;11.27;;;6.15;;
57029;SDS011;42920;45.306;20.448;2023-09-30T11:52:04;12.63;;;6.60;;
57029;SDS011;42920;45.306;20.448;2023-09-30T11:54:38;12.88;;;5.97;;
57029;SDS011;42920;45.306;20.448;2023-09-30T11:57:11;11.73;;;5.25;;
57029;SDS011;42920;45.306;20.448;2023-09-30T11:59:40;15.13;;;6.30;;
57029;SDS011;42920;45.306;20.448;2023-09-30T12:02:09;11.70;;;5.35;;
57029;SDS011;42920;45.306;20.448;2023-09-30T12:04:36;16.58;;;6.28;;
57029;SDS011;42920;45.306;20.448;2023-09-30T12:07:02;13.85;;;5.60;;
57029;SDS011;42920;45.306;20.448;2023-09-30T12:09:28;11.45;;;4.93;;
57029;SDS011;42920;45.306;20.448;2023-09-30T12:11:55;8.70;;;4.53;;
57029;SDS011;42920;45.306;20.448;2023-09-30T12:14:22;11.43;;;5.60;;
57029;SDS011;42920;45.306;20.448;2023-09-30T12:16:49;9.77;;;5.68;;
57029;SDS011;42920;45.306;20.448;2023-09-30T12:19:18;9.68;;;5.40;;
57029;SDS011;42920;45.306;20.448;2023-09-30T12:21:45;13.43;;;5.55;;
57029;SDS011;42920;45.306;20.448;2023-09-30T12:24:13;11.48;;;5.45;;
57029;SDS011;42920;45.306;20.448;2023-09-30T12:26:46;10.07;;;5.13;;
57029;SDS011;42920;45.306;20.448;2023-09-30T12:29:16;8.10;;;5.00;;
57029;SDS011;42920;45.306;20.448;2023-09-30T12:31:46;8.35;;;5.57;;
57029;SDS011;42920;45.306;20.448;2023-09-30T12:34:13;8.30;;;5.72;;
57029;SDS011;42920;45.306;20.448;2023-09-30T12:36:39;8.05;;;5.57;;
57029;SDS011;42920;45.306;20.448;2023-09-30T12:39:06;10.23;;;6.30;;
57029;SDS011;42920;45.306;20.448;2023-09-30T12:41:39;9.45;;;6.03;;
57029;SDS011;42920;45.306;20.448;2023-09-30T12:44:09;11.38;;;5.53;;
57029;SDS011;42920;45.306;20.448;2023-09-30T12:46:35;11.25;;;5.45;;
57029;SDS011;42920;45.306;20.448;2023-09-30T12:49:05;11.63;;;5.63;;
57029;SDS011;42920;45.306;20.448;2023-09-30T12:51:32;7.55;;;5.18;;
57029;SDS011;42920;45.306;20.448;2023-09-30T12:53:58;7.40;;;4.75;;
57029;SDS011;42920;45.306;20.448;2023-09-30T12:56:25;9.88;;;5.57;;
57029;SDS011;42920;45.306;20.448;2023-09-30T12:58:51;15.05;;;5.20;;
57029;SDS011;42920;45.306;20.448;2023-09-30T13:01:17;11.43;;;5.63;;
57029;SDS011;42920;45.306;20.448;2023-09-30T13:03:46;12.15;;;5.90;;
57029;SDS011;42920;45.306;20.448;2023-09-30T13:06:12;13.13;;;5.22;;
57029;SDS011;42920;45.306;20.448;2023-09-30T13:08:39;11.57;;;5.70;;
57029;SDS011;42920;45.306;20.448;2023-09-30T13:11:04;10.40;;;5.13;;
57029;SDS011;42920;45.306;20.448;2023-09-30T13:13:31;8.63;;;4.72;;
57029;SDS011;42920;45.306;20.448;2023-09-30T13:16:01;8.10;;;4.97;;
57029;SDS011;42920;45.306;20.448;2023-09-30T13:18:32;12.95;;;5.30;;
57029;SDS011;42920;45.306;20.448;2023-09-30T13:20:58;7.20;;;5.57;;
57029;SDS011;42920;45.306;20.448;2023-09-30T13:23:24;8.70;;;5.82;;
57029;SDS011;42920;45.306;20.448;2023-09-30T13:25:51;8.57;;;5.53;;
57029;SDS011;42920;45.306;20.448;2023-09-30T13:28:17;15.07;;;6.40;;
57029;SDS011;42920;45.306;20.448;2023-09-30T13:30:43;7.82;;;4.93;;
57029;SDS011;42920;45.306;20.448;2023-09-30T13:33:10;9.13;;;5.53;;
57029;SDS011;42920;45.306;20.448;2023-09-30T13:35:36;9.45;;;5.10;;
57029;SDS011;42920;45.306;20.448;2023-09-30T13:38:03;8.70;;;5.20;;
57029;SDS011;42920;45.306;20.448;2023-09-30T13:40:29;9.02;;;5.22;;
57029;SDS011;42920;45.306;20.448;2023-09-30T13:42:55;7.40;;;5.28;;
57029;SDS011;42920;45.306;20.448;2023-09-30T13:45:22;9.70;;;4.60;;
57029;SDS011;42920;45.306;20.448;2023-09-30T13:47:49;9.48;;;6.07;;
57029;SDS011;42920;45.306;20.448;2023-09-30T13:50:14;9.80;;;5.43;;
57029;SDS011;42920;45.306;20.448;2023-09-30T13:52:41;9.30;;;5.68;;
57029;SDS011;42920;45.306;20.448;2023-09-30T13:55:07;8.55;;;4.60;;
57029;SDS011;42920;45.306;20.448;2023-09-30T13:57:33;12.05;;;8.10;;
57029;SDS011;42920;45.306;20.448;2023-09-30T14:00:00;10.50;;;7.22;;
57029;SDS011;42920;45.306;20.448;2023-09-30T14:02:28;12.38;;;6.30;;
57029;SDS011;42920;45.306;20.448;2023-09-30T14:04:53;11.40;;;5.18;;
57029;SDS011;42920;45.306;20.448;2023-09-30T14:07:19;9.05;;;4.95;;
57029;SDS011;42920;45.306;20.448;2023-09-30T14:09:45;8.88;;;5.45;;
57029;SDS011;42920;45.306;20.448;2023-09-30T14:12:10;8.60;;;5.18;;
57029;SDS011;42920;45.306;20.448;2023-09-30T14:14:37;8.73;;;4.63;;
57029;SDS011;42920;45.306;20.448;2023-09-30T14:17:03;11.85;;;5.30;;
57029;SDS011;42920;45.306;20.448;2023-09-30T14:19:39;7.28;;;4.75;;
57029;SDS011;42920;45.306;20.448;2023-09-30T14:22:05;9.40;;;6.25;;
57029;SDS011;42920;45.306;20.448;2023-09-30T14:24:33;11.55;;;6.90;;
57029;SDS011;42920;45.306;20.448;2023-09-30T14:27:00;11.52;;;6.57;;
57029;SDS011;42920;45.306;20.448;2023-09-30T14:29:26;10.77;;;7.35;;
57029;SDS011;42920;45.306;20.448;2023-09-30T14:31:52;16.63;;;10.48;;
57029;SDS011;42920;45.306;20.448;2023-09-30T14:34:18;12.82;;;8.77;;
57029;SDS011;42920;45.306;20.448;2023-09-30T14:36:44;15.13;;;6.97;;
57029;SDS011;42920;45.306;20.448;2023-09-30T14:39:10;10.30;;;6.90;;
57029;SDS011;42920;45.306;20.448;2023-09-30T14:41:36;7.15;;;4.93;;
57029;SDS011;42920;45.306;20.448;2023-09-30T14:44:01;9.48;;;4.22;;
57029;SDS011;42920;45.306;20.448;2023-09-30T14:46:33;7.78;;;4.15;;
57029;SDS011;42920;45.306;20.448;2023-09-30T14:48:59;14.05;;;5.63;;
57029;SDS011;42920;45.306;20.448;2023-09-30T14:51:25;9.15;;;5.47;;